Terminal Aerodrome Forecast
Issued by NWS Wilmington, OH

Home | Current Version | Previous Version | Text Only | Print | Product List | Glossary On
Versions: 1 2 3 4 5 6 7 8 9 10 11 12 13 14 15 16 17
000
FTUS41 KILN 250500
TAFCMH
TAF
KCMH 250532Z 2506/2606 11009KT P6SM SCT100 OVC250
     FM251100 15008KT 5SM -SHRA OVC060
     FM251500 18010KT 4SM -SHRA VCTS OVC020CB
     FM251900 29016G26KT P6SM SCT030
     FM260000 29008KT P6SM SKC=

USA.gov is the U.S. government's official web portal to all federal, state and local government web resources and services.